»·PEaware :: EJA1096 KHND-KTEX

EJA1096 :: KHND-KTEX

FLIGHT INFORMATION

Flight Status: Arrived
Operator:
Netjets Aviation
More flights by this operator :: More flights under this callsign
Pilot: Ian G. (41107)
Aircraft: Cessna 700 Citation Longitude
(C700)
More flights by this aircraft type
Origin: KHND Henderson
United States
Destination: KTEX Telluride Regl
United States
More flights between these airports :: More routes between these airports
Route: SCAMR3 TUKRR ETL
File this flight plan on PilotEdge
Remarks: RMK / SIMBRIEF
Altitude:
(Current/Filed)
37,000ft
Speed:
(Current/Filed)
469kts
Departed: 01-Aug-23 09:21 AM
Arrived: 01-Aug-23 10:16 AM
Distance/Time
Traveled:
366nm/0:54
Distance/Time
To Go:
Arrived

Flight Plot

Page will automatically refresh every two minutes.

Flight plan parsing failed; only flown route is shown


Map Options




Map Legend


Flown Route
Filed Route
Departure Airport
Arrival Airport
Navaid (VOR, NDB)
Fix

Horizontal Profiles

Position Reports

Time Latitude Longitude Heading Altitude Ground
Speed
01-Aug-23 09:05 35.976131 -115.137928 181 2433ft 0kts
01-Aug-23 09:06 35.976131 -115.137928 181 2433ft 0kts
01-Aug-23 09:07 35.976131 -115.137928 181 2433ft 0kts
01-Aug-23 09:08 35.976131 -115.137928 181 2433ft 0kts
01-Aug-23 09:09 35.976131 -115.137928 181 2437ft 0kts
01-Aug-23 09:10 35.976131 -115.137928 181 2437ft 0kts
01-Aug-23 09:11 35.976131 -115.137928 181 2437ft 0kts
01-Aug-23 09:12 35.976131 -115.137928 181 2437ft 0kts
01-Aug-23 09:13 35.976131 -115.137928 181 2437ft 0kts
01-Aug-23 09:14 35.976131 -115.137928 181 2437ft 0kts
01-Aug-23 09:15 35.976131 -115.137928 181 2437ft 0kts
01-Aug-23 09:16 35.975969 -115.137872 127 2436ft 4kts
01-Aug-23 09:17 35.974368 -115.136632 120 2437ft 12kts
01-Aug-23 09:18 35.969999 -115.136451 181 2436ft 20kts
01-Aug-23 09:19 35.964618 -115.136521 181 2439ft 20kts
01-Aug-23 09:20 35.971701 -115.135475 3 2445ft 141kts
01-Aug-23 09:21 36.006675 -115.097474 91 5998ft 259kts
01-Aug-23 09:22 35.990866 -115.007716 128 6043ft 275kts
01-Aug-23 09:23 35.935264 -114.968885 158 5977ft 220kts
01-Aug-23 09:24 35.903470 -114.907547 95 8038ft 233kts
01-Aug-23 09:25 35.897596 -114.821264 91 12177ft 299kts
01-Aug-23 09:26 35.898397 -114.701920 90 15812ft 375kts
01-Aug-23 09:27 35.920309 -114.572508 59 20050ft 408kts
01-Aug-23 09:28 36.001664 -114.468505 45 23683ft 436kts
01-Aug-23 09:29 36.091258 -114.362638 45 26658ft 456kts
01-Aug-23 09:30 36.178896 -114.245274 61 29498ft 473kts
01-Aug-23 09:31 36.212436 -114.088061 83 32288ft 476kts
01-Aug-23 09:32 36.231637 -113.926113 83 34963ft 475kts
01-Aug-23 09:33 36.250638 -113.763933 83 37096ft 481kts
01-Aug-23 09:34 36.270101 -113.595736 83 37115ft 497kts
01-Aug-23 09:35 36.289441 -113.426370 83 37127ft 496kts
01-Aug-23 09:36 36.308587 -113.256996 82 37122ft 496kts
01-Aug-23 09:37 36.357452 -113.096531 67 37111ft 498kts
01-Aug-23 09:38 36.412810 -112.938918 67 37107ft 497kts
01-Aug-23 09:39 36.467774 -112.781655 67 37105ft 497kts
01-Aug-23 09:40 36.522584 -112.624041 68 37108ft 496kts
01-Aug-23 09:41 36.576947 -112.466888 68 37122ft 495kts
01-Aug-23 09:42 36.631124 -112.309480 68 37124ft 494kts
01-Aug-23 09:43 36.685013 -112.152093 68 37118ft 494kts
01-Aug-23 09:44 36.738839 -111.994073 68 37105ft 494kts
01-Aug-23 09:45 36.792291 -111.836288 69 37107ft 495kts
01-Aug-23 09:46 36.846314 -111.676055 67 37212ft 505kts
01-Aug-23 09:47 36.904523 -111.516115 65 37295ft 505kts
01-Aug-23 09:48 36.963034 -111.356712 65 37294ft 505kts
01-Aug-23 09:49 37.021105 -111.197646 65 37198ft 494kts
01-Aug-23 09:50 37.076861 -111.044076 66 35732ft 478kts
01-Aug-23 09:51 37.131789 -110.892035 67 33877ft 482kts
01-Aug-23 09:52 37.186757 -110.739135 67 31903ft 483kts
01-Aug-23 09:53 37.241841 -110.585106 67 30043ft 483kts
01-Aug-23 09:54 37.295890 -110.433222 67 27973ft 469kts
01-Aug-23 09:55 37.348135 -110.285721 67 26050ft 455kts
01-Aug-23 09:56 37.398632 -110.142410 67 24262ft 446kts
01-Aug-23 09:57 37.450806 -109.993653 67 24119ft 469kts
01-Aug-23 09:58 37.502812 -109.844645 68 23675ft 444kts
01-Aug-23 09:59 37.551201 -109.705253 68 22718ft 432kts
01-Aug-23 10:00 37.598953 -109.567094 68 21804ft 427kts
01-Aug-23 10:01 37.645918 -109.430574 68 20834ft 421kts
01-Aug-23 10:02 37.693410 -109.291880 68 20308ft 443kts
01-Aug-23 10:03 37.742200 -109.148706 68 20195ft 445kts
01-Aug-23 10:04 37.791056 -109.004660 68 20150ft 445kts
01-Aug-23 10:05 37.839576 -108.860953 68 20149ft 446kts
01-Aug-23 10:06 37.888197 -108.716200 68 20145ft 446kts
01-Aug-23 10:07 37.936366 -108.572047 68 19974ft 440kts
01-Aug-23 10:08 37.977696 -108.447665 68 17966ft 352kts
01-Aug-23 10:09 38.014544 -108.336506 69 15649ft 331kts
01-Aug-23 10:10 38.023522 -108.227007 110 14084ft 311kts
01-Aug-23 10:11 37.991138 -108.130767 104 12611ft 290kts
01-Aug-23 10:12 37.977055 -108.042446 103 11462ft 187kts
01-Aug-23 10:13 37.969217 -107.984588 100 10716ft 161kts
01-Aug-23 10:14 37.959090 -107.933650 105 9377ft 136kts
01-Aug-23 10:15 37.952458 -107.901416 55 9044ft 11kts
01-Aug-23 10:16 37.954126 -107.902026 13 9052ft 0kts

Navigation Log

Ident Type
Flight plan parsing failed, navigation log unavailable